Time;durP1;ratioP1;P1;durP2;ratioP2;P2;SDS_P1;SDS_P2;PMS_P1;PMS_P2;Temp;Humidity;BMP_temperature;BMP_pressure;BME280_temperature;BME280_humidity;BME280_pressure;Samples;Min_cycle;Max_cycle;Signal;HPM_P1;HPM_P2
2023/09/03 00:00:37;;;;;;;;;;;18.20;99.90;;;;;;5095685;28;20303;-69
2023/09/03 00:03:02;;;;;;;;;;;18.10;99.90;;;;;;5095373;28;19999;-68
2023/09/03 00:05:28;;;;;;;;;;;18.10;99.90;;;;;;5095175;28;19995;-68
2023/09/03 00:07:54;;;;;;;;;;;18.10;99.90;;;;;;5095189;28;19912;-68
2023/09/03 00:10:20;;;;;;;;;;;18.20;99.90;;;;;;5095000;28;20278;-68
2023/09/03 00:12:45;;;;;;;;;;;18.30;99.90;;;;;;5095023;28;20019;-68
2023/09/03 00:15:12;;;;;;;;;;;18.20;99.90;;;;;;5095732;28;19904;-68
2023/09/03 00:17:38;;;;;;;;;;;18.10;99.90;;;;;;5094914;28;20242;-68
2023/09/03 00:20:04;;;;;;;;;;;18.10;99.90;;;;;;5094987;28;19920;-68
2023/09/03 00:22:30;;;;;;;;;;;18.10;99.90;;;;;;5094912;28;20370;-68
2023/09/03 00:24:55;;;;;;;;;;;18.10;99.90;;;;;;5094539;28;20321;-68
2023/09/03 00:27:21;;;;;;;;;;;18.20;99.90;;;;;;5094276;28;20014;-68
2023/09/03 00:29:46;;;;;;;;;;;18.10;99.90;;;;;;5094818;28;19941;-67
2023/09/03 00:32:12;;;;;;;;;;;18.20;99.90;;;;;;5094695;28;20258;-68
2023/09/03 00:34:38;;;;;;;;;;;18.10;99.90;;;;;;5094771;28;19928;-67
2023/09/03 00:37:03;;;;;;;;;;;18.20;99.90;;;;;;5093638;28;19939;-68
2023/09/03 00:39:29;;;;;;;;;;;18.00;99.90;;;;;;5095212;28;20345;-67
2023/09/03 00:41:54;;;;;;;;;;;17.90;99.90;;;;;;5094382;28;19912;-67
2023/09/03 00:44:20;;;;;;;;;;;17.90;99.90;;;;;;5094620;28;20346;-67
2023/09/03 00:46:46;;;;;;;;;;;17.90;99.90;;;;;;5094452;28;19989;-67
2023/09/03 00:49:12;;;;;;;;;;;18.00;99.90;;;;;;5094215;28;19950;-67
2023/09/03 00:51:37;;;;;;;;;;;17.90;99.90;;;;;;5094059;28;19923;-67
2023/09/03 00:54:03;;;;;;;;;;;17.90;99.90;;;;;;5093510;28;20265;-67
2023/09/03 00:56:29;;;;;;;;;;;17.90;99.90;;;;;;5093314;28;19912;-67
2023/09/03 00:58:55;;;;;;;;;;;17.90;99.90;;;;;;5094257;28;19912;-67
2023/09/03 01:01:21;;;;;;;;;;;17.70;99.90;;;;;;5094332;28;19947;-67
2023/09/03 01:03:47;;;;;;;;;;;17.80;99.90;;;;;;5093014;28;19962;-66
2023/09/03 01:06:13;;;;;;;;;;;17.70;99.90;;;;;;5094817;28;19904;-67
2023/09/03 01:08:39;;;;;;;;;;;17.70;99.90;;;;;;5092709;28;20318;-67
2023/09/03 01:11:17;;;;;;;;;;;17.70;99.90;;;;;;5093972;28;19963;-68
2023/09/03 01:13:49;;;;;;;;;;;17.80;99.90;;;;;;5092718;28;20322;-67
2023/09/03 01:16:22;;;;;;;;;;;17.70;99.90;;;;;;5093751;28;19912;-67
2023/09/03 01:18:48;;;;;;;;;;;17.70;99.90;;;;;;5093875;28;20007;-67
2023/09/03 01:21:14;;;;;;;;;;;17.60;99.90;;;;;;5094679;28;20250;-67
2023/09/03 01:23:42;;;;;;;;;;;17.60;99.90;;;;;;5093412;28;20436;-67
2023/09/03 01:26:10;;;;;;;;;;;17.60;99.90;;;;;;5092532;28;19912;-67
2023/09/03 01:28:38;;;;;;;;;;;17.50;99.90;;;;;;5093748;28;19958;-67
2023/09/03 01:31:07;;;;;;;;;;;17.50;99.90;;;;;;5093558;28;19917;-67
2023/09/03 01:33:33;;;;;;;;;;;17.40;99.90;;;;;;5093954;28;19965;-68
2023/09/03 01:35:59;;;;;;;;;;;17.40;99.90;;;;;;5093128;28;19935;-67
2023/09/03 01:38:25;;;;;;;;;;;17.40;99.90;;;;;;5093432;28;19912;-68
2023/09/03 01:40:51;;;;;;;;;;;17.40;99.90;;;;;;5093415;28;20357;-67
2023/09/03 01:43:17;;;;;;;;;;;17.40;99.90;;;;;;5093549;28;20015;-68
2023/09/03 01:45:45;;;;;;;;;;;17.50;99.90;;;;;;5093192;28;20322;-67
2023/09/03 01:48:14;;;;;;;;;;;17.40;99.90;;;;;;5093802;28;19916;-67
2023/09/03 01:50:58;;;;;;;;;;;17.40;99.90;;;;;;5092973;28;20014;-67
2023/09/03 01:53:27;;;;;;;;;;;17.30;99.90;;;;;;5093004;28;19939;-66
2023/09/03 01:55:57;;;;;;;;;;;17.30;99.90;;;;;;5092712;28;20022;-67
2023/09/03 01:58:23;;;;;;;;;;;17.30;99.90;;;;;;5092846;28;19912;-67
2023/09/03 02:00:49;;;;;;;;;;;17.40;99.90;;;;;;5091901;28;19908;-68
2023/09/03 02:03:15;;;;;;;;;;;17.30;99.90;;;;;;5093216;28;19916;-68
2023/09/03 02:05:41;;;;;;;;;;;17.30;99.90;;;;;;5092573;28;20326;-68
2023/09/03 02:08:07;;;;;;;;;;;17.40;99.90;;;;;;5092905;28;20005;-68
2023/09/03 02:10:32;;;;;;;;;;;17.30;99.90;;;;;;5092748;28;19917;-68
2023/09/03 02:12:57;;;;;;;;;;;17.30;99.90;;;;;;5093072;28;19931;-67
2023/09/03 02:15:23;;;;;;;;;;;17.30;99.90;;;;;;5093099;28;19908;-67
2023/09/03 02:17:49;;;;;;;;;;;17.20;99.90;;;;;;5093001;28;19912;-68
2023/09/03 02:20:15;;;;;;;;;;;17.30;99.90;;;;;;5092543;28;19919;-67
2023/09/03 02:22:41;;;;;;;;;;;17.20;99.90;;;;;;5092698;28;19930;-67
2023/09/03 02:25:06;;;;;;;;;;;17.20;99.90;;;;;;5092577;28;20010;-67
2023/09/03 02:27:32;;;;;;;;;;;17.20;99.90;;;;;;5092800;28;19912;-67
2023/09/03 02:29:57;;;;;;;;;;;17.20;99.90;;;;;;5092404;28;19917;-67
2023/09/03 02:32:23;;;;;;;;;;;17.10;99.90;;;;;;5092215;28;20264;-67
2023/09/03 02:34:49;;;;;;;;;;;17.10;99.90;;;;;;5092124;28;19924;-67
2023/09/03 02:37:14;;;;;;;;;;;17.10;99.90;;;;;;5092454;28;20354;-67
2023/09/03 02:39:41;;;;;;;;;;;17.10;99.90;;;;;;5092187;28;20011;-68
2023/09/03 02:42:06;;;;;;;;;;;17.10;99.90;;;;;;5093011;28;19909;-68
2023/09/03 02:44:32;;;;;;;;;;;16.90;99.90;;;;;;5092201;28;20273;-68
2023/09/03 02:46:57;;;;;;;;;;;16.80;99.90;;;;;;5092072;28;19912;-67
2023/09/03 02:49:23;;;;;;;;;;;16.90;99.90;;;;;;5092089;28;20210;-68
2023/09/03 02:51:49;;;;;;;;;;;16.90;99.90;;;;;;5090839;28;19966;-68
2023/09/03 02:54:14;;;;;;;;;;;16.90;99.90;;;;;;5092422;28;19947;-68
2023/09/03 02:56:40;;;;;;;;;;;16.90;99.90;;;;;;5091926;28;19926;-67
2023/09/03 02:59:05;;;;;;;;;;;16.90;99.90;;;;;;5091888;28;19923;-68
2023/09/03 03:01:31;;;;;;;;;;;16.90;99.90;;;;;;5092185;28;19916;-67
2023/09/03 03:03:57;;;;;;;;;;;16.90;99.90;;;;;;5090597;28;20273;-68
2023/09/03 03:06:22;;;;;;;;;;;16.90;99.90;;;;;;5092235;28;20049;-68
2023/09/03 03:08:48;;;;;;;;;;;16.90;99.90;;;;;;5091625;28;19956;-67
2023/09/03 03:11:14;;;;;;;;;;;16.80;99.90;;;;;;5090299;28;19927;-67
2023/09/03 03:13:41;;;;;;;;;;;16.80;99.90;;;;;;5091825;28;20343;-67
2023/09/03 03:16:07;;;;;;;;;;;16.80;99.90;;;;;;5091647;28;19927;-68
2023/09/03 03:18:36;;;;;;;;;;;16.80;99.90;;;;;;5092023;28;20238;-68
2023/09/03 03:21:06;;;;;;;;;;;16.90;99.90;;;;;;5091875;28;20261;-67
2023/09/03 03:23:32;;;;;;;;;;;16.80;99.90;;;;;;5091572;28;19937;-67
2023/09/03 03:25:58;;;;;;;;;;;16.80;99.90;;;;;;5091466;28;19923;-67
2023/09/03 03:28:23;;;;;;;;;;;16.80;99.90;;;;;;5091324;28;19912;-67
2023/09/03 03:30:49;;;;;;;;;;;16.80;99.90;;;;;;5091335;28;20330;-68
2023/09/03 03:33:14;;;;;;;;;;;16.70;99.90;;;;;;5090666;28;20006;-67
2023/09/03 03:35:40;;;;;;;;;;;16.70;99.90;;;;;;5089972;28;20209;-67
2023/09/03 03:38:05;;;;;;;;;;;16.80;99.90;;;;;;5090337;28;20293;-67
2023/09/03 03:40:31;;;;;;;;;;;16.80;99.90;;;;;;5091100;28;19916;-67
2023/09/03 03:42:56;;;;;;;;;;;16.80;99.90;;;;;;5091338;28;19922;-67
2023/09/03 03:45:22;;;;;;;;;;;16.70;99.90;;;;;;5091638;28;19908;-66
2023/09/03 03:47:48;;;;;;;;;;;16.60;99.90;;;;;;5091193;28;19913;-66
2023/09/03 03:50:14;;;;;;;;;;;16.70;99.90;;;;;;5090138;28;19916;-67
2023/09/03 03:52:40;;;;;;;;;;;16.70;99.90;;;;;;5091152;28;19912;-66
2023/09/03 03:55:06;;;;;;;;;;;16.60;99.90;;;;;;5089870;28;19912;-66
2023/09/03 03:57:31;;;;;;;;;;;16.70;99.90;;;;;;5091736;28;19912;-66
2023/09/03 03:59:57;;;;;;;;;;;16.60;99.90;;;;;;5091059;28;20258;-66
2023/09/03 04:02:23;;;;;;;;;;;16.60;99.90;;;;;;5091146;28;20288;-66
2023/09/03 04:04:51;;;;;;;;;;;16.60;99.90;;;;;;5091158;28;19943;-66
2023/09/03 04:07:17;;;;;;;;;;;16.60;99.90;;;;;;5091066;28;20393;-66
2023/09/03 04:09:42;;;;;;;;;;;16.60;99.90;;;;;;5090857;28;19908;-66
2023/09/03 04:12:08;;;;;;;;;;;16.60;99.90;;;;;;5091302;28;19981;-67
2023/09/03 04:14:34;;;;;;;;;;;16.70;99.90;;;;;;5090997;28;19967;-67
2023/09/03 04:16:59;;;;;;;;;;;16.60;99.90;;;;;;5090935;28;19938;-67
2023/09/03 04:19:25;;;;;;;;;;;16.60;99.90;;;;;;5090830;28;19921;-67
2023/09/03 04:21:50;;;;;;;;;;;16.60;99.90;;;;;;5090932;28;19916;-67
2023/09/03 04:24:16;;;;;;;;;;;16.50;99.90;;;;;;5091624;28;19913;-67
2023/09/03 04:26:42;;;;;;;;;;;16.50;99.90;;;;;;5090894;28;19920;-67
2023/09/03 04:29:07;;;;;;;;;;;16.50;99.90;;;;;;5089800;28;19912;-67
2023/09/03 04:31:35;;;;;;;;;;;16.50;99.90;;;;;;5092204;28;19939;-67
2023/09/03 04:34:01;;;;;;;;;;;16.50;99.90;;;;;;5094352;28;19981;-67
2023/09/03 04:36:27;;;;;;;;;;;16.40;99.90;;;;;;5095192;28;19912;-67
2023/09/03 04:38:53;;;;;;;;;;;16.50;99.90;;;;;;5094457;28;19913;-66
2023/09/03 04:41:18;;;;;;;;;;;16.40;99.90;;;;;;5094441;28;19913;-67
2023/09/03 04:43:45;;;;;;;;;;;16.40;99.90;;;;;;5094610;28;19913;-67
2023/09/03 04:46:10;;;;;;;;;;;16.40;99.90;;;;;;5094394;28;19968;-67
2023/09/03 04:48:35;;;;;;;;;;;16.30;99.90;;;;;;5095092;28;19920;-67
2023/09/03 04:51:02;;;;;;;;;;;16.30;99.90;;;;;;5094135;28;19920;-67
2023/09/03 04:53:27;;;;;;;;;;;16.30;99.90;;;;;;5094122;28;19965;-67
2023/09/03 04:55:53;;;;;;;;;;;16.20;99.90;;;;;;5094214;28;19995;-67
2023/09/03 04:58:18;;;;;;;;;;;16.30;99.90;;;;;;5094231;28;19912;-67
2023/09/03 05:00:47;;;;;;;;;;;16.30;99.90;;;;;;5093952;28;19919;-67
2023/09/03 05:03:12;;;;;;;;;;;16.30;99.90;;;;;;5094240;28;19992;-67
2023/09/03 05:05:41;;;;;;;;;;;16.30;99.90;;;;;;5094100;28;19919;-67
2023/09/03 05:08:10;;;;;;;;;;;16.40;99.90;;;;;;5093793;28;19999;-67
2023/09/03 05:10:37;;;;;;;;;;;16.40;99.90;;;;;;5093956;28;19916;-67
2023/09/03 05:13:03;;;;;;;;;;;16.30;99.90;;;;;;5093819;28;20394;-67
2023/09/03 05:15:29;;;;;;;;;;;16.40;99.90;;;;;;5093117;28;20375;-67
2023/09/03 05:17:54;;;;;;;;;;;16.40;99.90;;;;;;5093826;28;19916;-67
2023/09/03 05:20:20;;;;;;;;;;;16.30;99.90;;;;;;5093685;28;19978;-66
2023/09/03 05:22:46;;;;;;;;;;;16.30;99.90;;;;;;5093505;28;19919;-67
2023/09/03 05:25:11;;;;;;;;;;;16.40;99.90;;;;;;5093477;28;20009;-67
2023/09/03 05:27:37;;;;;;;;;;;16.40;99.90;;;;;;5094034;28;19919;-67
2023/09/03 05:30:03;;;;;;;;;;;16.40;99.90;;;;;;5093528;28;19920;-66
2023/09/03 05:32:28;;;;;;;;;;;16.50;99.90;;;;;;5093375;28;19912;-66
2023/09/03 05:34:54;;;;;;;;;;;16.50;99.90;;;;;;5093197;28;19924;-66
2023/09/03 05:37:19;;;;;;;;;;;16.50;99.90;;;;;;5093646;28;19912;-66
2023/09/03 05:39:45;;;;;;;;;;;16.50;99.90;;;;;;5093162;28;20011;-67
2023/09/03 05:42:10;;;;;;;;;;;16.50;99.90;;;;;;5093784;28;19955;-68
2023/09/03 05:44:36;;;;;;;;;;;16.50;99.90;;;;;;5093285;28;19973;-67
2023/09/03 05:47:02;;;;;;;;;;;16.40;99.90;;;;;;5093073;28;19940;-66
2023/09/03 05:49:27;;;;;;;;;;;16.50;99.90;;;;;;5093171;28;19912;-65
2023/09/03 05:51:53;;;;;;;;;;;16.50;99.90;;;;;;5092892;28;20015;-66
2023/09/03 05:54:18;;;;;;;;;;;16.60;99.90;;;;;;5093603;28;19908;-67
2023/09/03 05:56:44;;;;;;;;;;;16.70;99.90;;;;;;5092898;28;19968;-67
2023/09/03 05:59:10;;;;;;;;;;;16.60;99.90;;;;;;5092077;28;19955;-67
2023/09/03 06:01:36;;;;;;;;;;;16.70;99.90;;;;;;5093119;28;19912;-67
2023/09/03 06:04:09;;;;;;;;;;;16.70;99.90;;;;;;5092704;28;19917;-67
2023/09/03 06:06:36;;;;;;;;;;;16.80;99.90;;;;;;5090621;28;19948;-67
2023/09/03 06:09:03;;;;;;;;;;;16.80;99.90;;;;;;5093249;28;19915;-67
2023/09/03 06:11:28;;;;;;;;;;;16.80;99.90;;;;;;5092904;28;19916;-68
2023/09/03 06:13:54;;;;;;;;;;;16.80;99.90;;;;;;5092075;28;19939;-67
2023/09/03 06:16:19;;;;;;;;;;;16.80;99.90;;;;;;5092988;28;19912;-67
2023/09/03 06:18:45;;;;;;;;;;;16.80;99.90;;;;;;5093005;28;19912;-67
2023/09/03 06:21:10;;;;;;;;;;;16.70;99.90;;;;;;5092982;28;19908;-67
2023/09/03 06:23:36;;;;;;;;;;;16.80;99.90;;;;;;5092667;28;19916;-67
2023/09/03 06:26:01;;;;;;;;;;;16.90;99.90;;;;;;5093080;28;19915;-67
2023/09/03 06:28:28;;;;;;;;;;;16.90;99.90;;;;;;5092943;28;19923;-67
2023/09/03 06:30:56;;;;;;;;;;;16.90;99.90;;;;;;5092617;28;20302;-68
2023/09/03 06:33:22;;;;;;;;;;;16.80;99.90;;;;;;5093176;28;20048;-67
2023/09/03 06:35:48;;;;;;;;;;;16.80;99.90;;;;;;5092521;28;19924;-67
2023/09/03 06:38:13;;;;;;;;;;;16.90;99.90;;;;;;5091752;28;19923;-68
2023/09/03 06:40:39;;;;;;;;;;;17.00;99.90;;;;;;5092420;28;19927;-67
2023/09/03 06:43:04;;;;;;;;;;;17.00;99.90;;;;;;5092331;28;19998;-67
2023/09/03 06:45:31;;;;;;;;;;;17.00;99.90;;;;;;5092945;28;20178;-67
2023/09/03 06:47:57;;;;;;;;;;;17.00;99.90;;;;;;5092440;28;19989;-68
2023/09/03 06:50:22;;;;;;;;;;;17.00;99.90;;;;;;5092065;28;20322;-67
2023/09/03 06:52:48;;;;;;;;;;;17.00;99.90;;;;;;5091221;28;20269;-67
2023/09/03 06:55:14;;;;;;;;;;;17.10;99.90;;;;;;5091545;28;20353;-67
2023/09/03 06:57:39;;;;;;;;;;;17.20;99.90;;;;;;5091191;28;19972;-67
2023/09/03 07:00:05;;;;;;;;;;;17.20;99.90;;;;;;5092511;28;19914;-68
2023/09/03 07:02:31;;;;;;;;;;;17.20;99.90;;;;;;5092044;28;19917;-68
2023/09/03 07:04:59;;;;;;;;;;;17.20;99.90;;;;;;5091557;28;19926;-68
2023/09/03 07:07:25;;;;;;;;;;;17.30;99.90;;;;;;5091900;28;19926;-67
2023/09/03 07:09:51;;;;;;;;;;;17.40;99.90;;;;;;5091930;28;19912;-67
2023/09/03 07:12:16;;;;;;;;;;;17.30;99.90;;;;;;5092736;28;20245;-68
2023/09/03 07:14:42;;;;;;;;;;;17.30;99.90;;;;;;5092293;28;20003;-68
2023/09/03 07:17:07;;;;;;;;;;;17.40;99.90;;;;;;5091721;28;20372;-68
2023/09/03 07:19:33;;;;;;;;;;;17.60;99.90;;;;;;5091815;28;20325;-67
2023/09/03 07:21:59;;;;;;;;;;;17.70;99.90;;;;;;5091773;28;20003;-68
2023/09/03 07:24:24;;;;;;;;;;;17.60;99.90;;;;;;5092123;28;19908;-68
2023/09/03 07:26:50;;;;;;;;;;;17.80;99.90;;;;;;5090897;28;19922;-68
2023/09/03 07:29:15;;;;;;;;;;;17.90;99.90;;;;;;5091652;28;19919;-67
2023/09/03 07:31:42;;;;;;;;;;;17.90;99.90;;;;;;5091515;28;19926;-68
2023/09/03 07:34:08;;;;;;;;;;;18.00;99.90;;;;;;5091154;28;19923;-68
2023/09/03 07:36:34;;;;;;;;;;;17.90;99.90;;;;;;5091699;28;19916;-68
2023/09/03 07:38:59;;;;;;;;;;;17.90;99.90;;;;;;5091702;28;19961;-67
2023/09/03 07:41:25;;;;;;;;;;;18.00;99.90;;;;;;5091588;28;19972;-69
2023/09/03 07:43:51;;;;;;;;;;;18.20;99.90;;;;;;5091486;28;19989;-68
2023/09/03 07:46:18;;;;;;;;;;;18.30;99.90;;;;;;5091631;28;19927;-69
2023/09/03 07:48:44;;;;;;;;;;;18.40;99.90;;;;;;5091127;28;20254;-68
2023/09/03 07:51:09;;;;;;;;;;;18.30;99.90;;;;;;5090877;28;19916;-69
2023/09/03 07:53:35;;;;;;;;;;;18.50;99.90;;;;;;5091489;28;19958;-68
2023/09/03 07:56:00;;;;;;;;;;;18.40;99.90;;;;;;5091629;28;19932;-68
2023/09/03 07:58:26;;;;;;;;;;;18.60;99.90;;;;;;5091474;28;19923;-68
2023/09/03 08:00:53;;;;;;;;;;;18.70;99.90;;;;;;5091355;28;19913;-69
2023/09/03 08:03:18;;;;;;;;;;;18.80;99.90;;;;;;5091855;28;19914;-69
2023/09/03 08:05:44;;;;;;;;;;;19.00;99.90;;;;;;5093162;28;19911;-68
2023/09/03 08:08:09;;;;;;;;;;;18.90;99.90;;;;;;5095384;28;19916;-67
2023/09/03 08:10:35;;;;;;;;;;;19.10;99.90;;;;;;5095323;28;20394;-68
2023/09/03 08:13:00;;;;;;;;;;;19.30;99.90;;;;;;5095423;28;20349;-68
2023/09/03 08:15:26;;;;;;;;;;;19.50;99.90;;;;;;5095704;28;20283;-70
2023/09/03 08:17:51;;;;;;;;;;;19.40;99.90;;;;;;5095377;28;19916;-68
2023/09/03 08:20:17;;;;;;;;;;;19.50;99.90;;;;;;5093803;28;20006;-69
2023/09/03 08:22:44;;;;;;;;;;;19.40;99.90;;;;;;5093937;28;20368;-70
2023/09/03 08:25:10;;;;;;;;;;;19.70;99.90;;;;;;5094007;28;19947;-69
2023/09/03 08:27:36;;;;;;;;;;;19.90;99.90;;;;;;5095008;28;19959;-71
2023/09/03 08:30:01;;;;;;;;;;;20.20;99.90;;;;;;5090780;28;19931;-70
2023/09/03 08:32:28;;;;;;;;;;;20.80;99.90;;;;;;5095022;28;20105;-69
2023/09/03 08:34:54;;;;;;;;;;;21.10;99.20;;;;;;5094633;28;19932;-68
2023/09/03 08:37:19;;;;;;;;;;;21.60;98.60;;;;;;5094888;28;20258;-68
2023/09/03 08:39:45;;;;;;;;;;;21.80;98.20;;;;;;5094903;28;19915;-67
2023/09/03 08:42:12;;;;;;;;;;;21.80;96.80;;;;;;5094024;28;19951;-68
2023/09/03 08:44:45;;;;;;;;;;;21.70;98.10;;;;;;5094013;28;21391;-68
2023/09/03 08:47:12;;;;;;;;;;;22.90;98.30;;;;;;5094637;28;20014;-68
2023/09/03 08:49:38;;;;;;;;;;;23.70;96.50;;;;;;5094864;28;19924;-69
2023/09/03 08:52:04;;;;;;;;;;;24.40;94.50;;;;;;5094675;28;19928;-68
2023/09/03 08:54:30;;;;;;;;;;;23.60;94.50;;;;;;5093979;28;19908;-68
2023/09/03 08:56:57;;;;;;;;;;;24.00;94.10;;;;;;5094638;28;19977;-68
2023/09/03 08:59:23;;;;;;;;;;;24.20;94.50;;;;;;5094337;28;20337;-68
2023/09/03 09:01:52;;;;;;;;;;;24.60;93.70;;;;;;5094445;28;19912;-68
2023/09/03 09:04:18;;;;;;;;;;;24.80;93.40;;;;;;5094403;28;20292;-68
2023/09/03 09:06:45;;;;;;;;;;;24.90;93.30;;;;;;5094624;28;19961;-69
2023/09/03 09:09:12;;;;;;;;;;;25.60;92.50;;;;;;5094911;28;20170;-69
2023/09/03 09:11:39;;;;;;;;;;;25.80;92.40;;;;;;5094177;28;19955;-68
2023/09/03 09:14:08;;;;;;;;;;;26.30;91.10;;;;;;5094110;28;19912;-69
2023/09/03 09:16:33;;;;;;;;;;;26.00;90.50;;;;;;5093601;28;19924;-69
2023/09/03 09:19:02;;;;;;;;;;;25.90;90.40;;;;;;5094188;28;19919;-70
2023/09/03 09:21:30;;;;;;;;;;;26.80;89.30;;;;;;5094717;28;19966;-69
2023/09/03 09:24:02;;;;;;;;;;;26.70;86.20;;;;;;5092953;28;19912;-69
2023/09/03 09:26:31;;;;;;;;;;;27.00;85.00;;;;;;5094128;28;20010;-69
2023/09/03 09:29:01;;;;;;;;;;;27.00;84.20;;;;;;5093781;28;19916;-69
2023/09/03 09:31:30;;;;;;;;;;;27.90;84.00;;;;;;5093955;28;19924;-70
2023/09/03 09:33:55;;;;;;;;;;;28.40;82.30;;;;;;5094004;28;19965;-70
2023/09/03 09:36:21;;;;;;;;;;;28.40;81.00;;;;;;5094802;28;19923;-70
2023/09/03 09:38:47;;;;;;;;;;;27.90;79.00;;;;;;5093888;28;20040;-69
2023/09/03 09:41:22;;;;;;;;;;;28.40;78.50;;;;;;5093843;28;19912;-70
2023/09/03 09:43:48;;;;;;;;;;;28.50;77.40;;;;;;5093494;28;19912;-70
2023/09/03 09:46:30;;;;;;;;;;;29.40;77.70;;;;;;5093633;28;19923;-70
2023/09/03 09:48:59;;;;;;;;;;;29.10;74.50;;;;;;5093723;28;19994;-70
2023/09/03 09:51:26;;;;;;;;;;;29.00;75.30;;;;;;5092791;28;19920;-68
2023/09/03 09:53:55;;;;;;;;;;;29.70;74.20;;;;;;5093537;28;19976;-71
2023/09/03 09:56:24;;;;;;;;;;;28.90;75.10;;;;;;5093573;28;19916;-69
2023/09/03 09:58:50;;;;;;;;;;;29.50;74.90;;;;;;5093257;28;20342;-69
2023/09/03 10:01:16;;;;;;;;;;;29.10;74.00;;;;;;5093651;28;20065;-69
2023/09/03 10:03:45;;;;;;;;;;;29.30;72.80;;;;;;5093491;28;19923;-70
2023/09/03 10:06:14;;;;;;;;;;;29.60;72.20;;;;;;5093809;28;20416;-69
2023/09/03 10:08:41;;;;;;;;;;;29.60;72.30;;;;;;5093290;28;20388;-70
2023/09/03 10:11:06;;;;;;;;;;;30.00;72.30;;;;;;5093223;28;19931;-70
2023/09/03 10:13:32;;;;;;;;;;;30.50;70.20;;;;;;5091410;28;19912;-70
2023/09/03 10:16:03;;;;;;;;;;;30.60;69.20;;;;;;5092674;28;19974;-69
2023/09/03 10:18:31;;;;;;;;;;;31.40;69.50;;;;;;5093325;28;19919;-69
2023/09/03 10:20:59;;;;;;;;;;;32.30;67.50;;;;;;5092677;28;20069;-69
2023/09/03 10:23:25;;;;;;;;;;;32.40;66.40;;;;;;5092486;28;19912;-69
2023/09/03 10:25:51;;;;;;;;;;;32.90;65.00;;;;;;5092396;28;19981;-69
2023/09/03 10:28:21;;;;;;;;;;;32.40;65.90;;;;;;5092079;28;20287;-69
2023/09/03 10:30:51;;;;;;;;;;;32.20;64.30;;;;;;5092199;28;19969;-68
2023/09/03 10:33:16;;;;;;;;;;;32.10;63.40;;;;;;5092896;28;20429;-69
2023/09/03 10:36:02;;;;;;;;;;;31.20;64.00;;;;;;5092371;28;20003;-71
2023/09/03 10:38:31;;;;;;;;;;;31.00;63.60;;;;;;5092109;28;19912;-67
2023/09/03 10:41:16;;;;;;;;;;;30.50;63.70;;;;;;5092136;28;20485;-68
2023/09/03 10:43:41;;;;;;;;;;;29.70;66.90;;;;;;5090928;28;19928;-69
2023/09/03 10:46:07;;;;;;;;;;;29.40;66.70;;;;;;5092348;28;19912;-69
2023/09/03 10:48:36;;;;;;;;;;;30.00;65.30;;;;;;5092440;28;19998;-69
2023/09/03 10:51:01;;;;;;;;;;;29.30;66.00;;;;;;5090874;28;19934;-69
2023/09/03 10:53:40;;;;;;;;;;;28.50;68.00;;;;;;5092041;28;20274;-69
2023/09/03 10:56:07;;;;;;;;;;;28.70;67.80;;;;;;5091860;28;19912;-70
2023/09/03 10:58:33;;;;;;;;;;;28.60;68.50;;;;;;5091841;28;19926;-71
2023/09/03 11:01:22;;;;;;;;;;;28.80;68.50;;;;;;5091809;28;20350;-69
2023/09/03 11:03:52;;;;;;;;;;;29.10;68.20;;;;;;5091969;28;19923;-69
2023/09/03 11:06:18;;;;;;;;;;;28.00;67.80;;;;;;5092386;28;19991;-71
2023/09/03 11:08:45;;;;;;;;;;;27.90;70.00;;;;;;5091817;28;19912;-71
2023/09/03 11:11:17;;;;;;;;;;;28.30;68.90;;;;;;5091877;28;20346;-72
2023/09/03 11:13:47;;;;;;;;;;;28.30;71.00;;;;;;5091913;28;19969;-72
2023/09/03 11:16:13;;;;;;;;;;;27.80;70.90;;;;;;5091999;28;19912;-71
2023/09/03 11:18:46;;;;;;;;;;;28.00;68.60;;;;;;5091537;28;19908;-70
2023/09/03 11:21:12;;;;;;;;;;;28.10;70.40;;;;;;5092235;28;20377;-69
2023/09/03 11:23:38;;;;;;;;;;;27.60;70.40;;;;;;5091582;28;20330;-70
2023/09/03 11:26:05;;;;;;;;;;;27.30;71.20;;;;;;5091552;28;20018;-70
2023/09/03 11:28:37;;;;;;;;;;;27.40;70.70;;;;;;5091539;28;19913;-70
2023/09/03 11:31:03;;;;;;;;;;;27.20;71.80;;;;;;5091205;28;20239;-70
2023/09/03 11:33:29;;;;;;;;;;;26.90;72.40;;;;;;5092056;28;20375;-71
2023/09/03 11:35:55;;;;;;;;;;;26.70;74.00;;;;;;5090168;28;19924;-71
2023/09/03 11:38:22;;;;;;;;;;;26.70;75.70;;;;;;5091451;28;19913;-69
2023/09/03 11:40:53;;;;;;;;;;;26.80;74.00;;;;;;5090999;28;20334;-71
2023/09/03 11:43:18;;;;;;;;;;;26.60;73.80;;;;;;5091345;28;19923;-71
2023/09/03 11:45:45;;;;;;;;;;;26.40;73.60;;;;;;5091261;28;19909;-70
2023/09/03 11:48:11;;;;;;;;;;;26.30;73.90;;;;;;5091955;28;19912;-72
2023/09/03 11:50:36;;;;;;;;;;;26.20;74.60;;;;;;5089967;28;19927;-72
2023/09/03 11:53:04;;;;;;;;;;;25.60;73.20;;;;;;5091365;28;19916;-71
2023/09/03 11:55:36;;;;;;;;;;;25.10;71.90;;;;;;5089979;28;19912;-71
2023/09/03 11:58:02;;;;;;;;;;;24.90;72.10;;;;;;5090268;28;20388;-69
2023/09/03 12:00:28;;;;;;;;;;;25.10;72.00;;;;;;5089488;28;19930;-70
2023/09/03 12:02:55;;;;;;;;;;;25.30;72.80;;;;;;5091811;28;19913;-71
2023/09/03 12:05:21;;;;;;;;;;;25.50;74.50;;;;;;5092118;28;20334;-71
2023/09/03 12:07:46;;;;;;;;;;;25.60;73.10;;;;;;5091520;28;20313;-70
2023/09/03 12:10:16;;;;;;;;;;;25.40;73.20;;;;;;5091296;28;20116;-69
2023/09/03 12:12:42;;;;;;;;;;;24.90;73.70;;;;;;5091473;28;19923;-70
2023/09/03 12:15:17;;;;;;;;;;;25.00;73.20;;;;;;5091593;28;19900;-69
2023/09/03 12:17:43;;;;;;;;;;;24.90;70.70;;;;;;5090143;28;20338;-69
2023/09/03 12:20:09;;;;;;;;;;;25.30;70.80;;;;;;5091259;28;19913;-69
2023/09/03 12:22:34;;;;;;;;;;;25.30;70.40;;;;;;5091221;28;19918;-69
2023/09/03 12:25:05;;;;;;;;;;;25.10;70.00;;;;;;5091126;28;19922;-70
2023/09/03 12:27:46;;;;;;;;;;;24.90;70.20;;;;;;5091455;28;19931;-69
2023/09/03 12:30:12;;;;;;;;;;;24.90;70.10;;;;;;5090814;28;19921;-70
2023/09/03 12:32:37;;;;;;;;;;;24.80;66.70;;;;;;5091293;28;19962;-70
2023/09/03 12:35:13;;;;;;;;;;;24.80;65.90;;;;;;5090938;28;19978;-70
2023/09/03 12:37:40;;;;;;;;;;;24.70;69.00;;;;;;5090465;28;20382;-69
2023/09/03 12:40:05;;;;;;;;;;;24.70;69.70;;;;;;5090577;28;19916;-69
2023/09/03 12:42:31;;;;;;;;;;;24.90;70.30;;;;;;5091086;28;19965;-69
2023/09/03 12:44:56;;;;;;;;;;;24.60;69.20;;;;;;5090600;28;20022;-69
2023/09/03 12:47:22;;;;;;;;;;;24.50;69.60;;;;;;5090609;28;20300;-68
2023/09/03 12:49:48;;;;;;;;;;;24.40;70.40;;;;;;5087575;28;20356;-69
2023/09/03 12:52:13;;;;;;;;;;;24.70;71.50;;;;;;5091570;28;19942;-69
2023/09/03 12:54:38;;;;;;;;;;;24.70;72.70;;;;;;5093413;28;19918;-69
2023/09/03 12:57:04;;;;;;;;;;;24.70;73.70;;;;;;5094968;28;19911;-70
2023/09/03 12:59:30;;;;;;;;;;;24.90;75.10;;;;;;5094668;28;20365;-70
2023/09/03 13:01:56;;;;;;;;;;;24.60;75.10;;;;;;5094312;28;19923;-70
2023/09/03 13:04:21;;;;;;;;;;;24.60;75.70;;;;;;5094299;28;20372;-71
2023/09/03 13:06:47;;;;;;;;;;;24.50;76.60;;;;;;5093914;28;20023;-68
2023/09/03 13:09:12;;;;;;;;;;;24.50;76.10;;;;;;5094727;28;19911;-69
2023/09/03 13:11:38;;;;;;;;;;;24.50;76.80;;;;;;5093882;28;19915;-69
2023/09/03 13:14:04;;;;;;;;;;;24.50;77.60;;;;;;5094224;28;19916;-69
2023/09/03 13:16:29;;;;;;;;;;;24.40;77.80;;;;;;5093896;28;19921;-68
2023/09/03 13:18:55;;;;;;;;;;;24.60;78.40;;;;;;5092590;28;19908;-69
2023/09/03 13:21:21;;;;;;;;;;;24.60;77.60;;;;;;5093841;28;19950;-69
2023/09/03 13:23:47;;;;;;;;;;;24.60;78.20;;;;;;5093719;28;19951;-69
2023/09/03 13:26:12;;;;;;;;;;;24.60;77.40;;;;;;5092183;28;19916;-69
2023/09/03 13:28:38;;;;;;;;;;;24.60;77.60;;;;;;5093614;28;19922;-69
2023/09/03 13:31:05;;;;;;;;;;;24.70;77.40;;;;;;5093013;28;19920;-69
2023/09/03 13:33:31;;;;;;;;;;;24.90;77.00;;;;;;5094026;28;19969;-68
2023/09/03 13:35:57;;;;;;;;;;;24.80;77.10;;;;;;5093174;28;19927;-69
2023/09/03 13:38:23;;;;;;;;;;;24.70;77.20;;;;;;5093445;28;19912;-67
2023/09/03 13:40:48;;;;;;;;;;;24.40;77.70;;;;;;5093416;28;20007;-68
2023/09/03 13:43:14;;;;;;;;;;;24.40;78.70;;;;;;5093311;28;20357;-69
2023/09/03 13:45:39;;;;;;;;;;;24.50;77.70;;;;;;5092140;28;19908;-68
2023/09/03 13:48:05;;;;;;;;;;;24.50;78.00;;;;;;5092563;28;19948;-68
2023/09/03 13:50:31;;;;;;;;;;;24.60;78.40;;;;;;5093082;28;19923;-68
2023/09/03 13:52:57;;;;;;;;;;;24.50;78.00;;;;;;5093334;28;20370;-69
2023/09/03 13:55:25;;;;;;;;;;;24.50;78.00;;;;;;5093068;28;19927;-68
2023/09/03 13:57:51;;;;;;;;;;;24.50;78.30;;;;;;5093211;28;20237;-68
2023/09/03 14:00:17;;;;;;;;;;;24.50;78.50;;;;;;5093597;28;19908;-68
2023/09/03 14:02:43;;;;;;;;;;;24.40;79.20;;;;;;5092909;28;19922;-68
2023/09/03 14:05:09;;;;;;;;;;;24.30;79.40;;;;;;5091706;28;19912;-68
2023/09/03 14:07:34;;;;;;;;;;;24.00;79.70;;;;;;5092909;28;19984;-68
2023/09/03 14:10:00;;;;;;;;;;;24.10;80.40;;;;;;5092450;28;20235;-67
2023/09/03 14:12:26;;;;;;;;;;;24.10;79.80;;;;;;5093260;28;19961;-68